Time;durP1;ratioP1;P1;durP2;ratioP2;P2;SDS_P1;SDS_P2;PMS_P1;PMS_P2;Temp;Humidity;BMP_temperature;BMP_pressure;BME280_temperature;BME280_humidity;BME280_pressure;Samples;Min_cycle;Max_cycle;Signal;HPM_P1;HPM_P2
2022/09/25 00:01:24;;;;;;;;;;;;;;;;;;4974613;28;20000;-60
2022/09/25 00:03:49;;;;;;;;;;;;;;;;;;4991512;28;19932;-60
2022/09/25 00:06:14;;;;;;;;;;;;;;;;;;4973719;28;19922;-60
2022/09/25 00:08:40;;;;;;;;;;;;;;;;;;4988952;28;20007;-60
2022/09/25 00:11:08;;;;;;;;;;;;;;;;;;4990796;28;20039;-59
2022/09/25 00:13:33;;;;;;;;;;;;;;;;;;4971946;28;20902;-59
2022/09/25 00:15:58;;;;;;;;;;;;;;;;;;4991724;28;19929;-59
2022/09/25 00:21:08;;;;;;;;;;;;;;;;;;4990833;28;19925;-59
2022/09/25 00:23:33;;;;;;;;;;;;;;;;;;4989849;28;19943;-59
2022/09/25 00:25:58;;;;;;;;;;;;;;;;;;4991101;28;20024;-59
2022/09/25 00:28:24;;;;;;;;;;;;;;;;;;4972463;28;19922;-59
2022/09/25 00:30:49;;;;;;;;;;;;;;;;;;4972270;28;20059;-59
2022/09/25 00:33:14;;;;;;;;;;;;;;;;;;4968642;28;19975;-60
2022/09/25 00:35:40;;;;;;;;;;;;;;;;;;4989406;28;19943;-59
2022/09/25 00:38:07;;;;;;;;;;;;;;;;;;4989274;28;19948;-59
2022/09/25 00:40:35;;;;;;;;;;;;;;;;;;4991676;28;19952;-59
2022/09/25 00:43:01;;;;;;;;;;;;;;;;;;4989206;28;21130;-59
2022/09/25 00:45:28;;;;;;;;;;;;;;;;;;4990359;28;19925;-59
2022/09/25 00:47:53;;;;;;;;;;;;;;;;;;4990245;28;19928;-59
2022/09/25 00:50:21;;;;;;;;;;;;;;;;;;4971463;28;19925;-59
2022/09/25 00:52:46;;;;;;;;;;;;;;;;;;4986742;28;21145;-59
2022/09/25 00:55:11;;;;;;;;;;;;;;;;;;4947197;28;20484;-60
2022/09/25 00:57:37;;;;;;;;;;;;;;;;;;4970760;28;19948;-59
2022/09/25 01:00:02;;;;;;;;;;;;;;;;;;4989941;28;19929;-59
2022/09/25 01:02:27;;;;;;;;;;;;;;;;;;4990355;28;19918;-59
2022/09/25 01:04:55;;;;;;;;;;;;;;;;;;4969978;28;19931;-59
2022/09/25 01:07:20;;;;;;;;;;;;;;;;;;4971723;28;19927;-60
2022/09/25 01:09:46;;;;;;;;;;;;;;;;;;4985791;28;19922;-61
2022/09/25 01:12:11;;;;;;;;;;;;;;;;;;4970571;28;20004;-59
2022/09/25 01:14:39;;;;;;;;;;;;;;;;;;4986715;28;20039;-60
2022/09/25 01:17:04;;;;;;;;;;;;;;;;;;4970484;28;19929;-59
2022/09/25 01:19:34;;;;;;;;;;;;;;;;;;4957331;28;19968;-60
2022/09/25 01:22:02;;;;;;;;;;;;;;;;;;4986109;28;19973;-59
2022/09/25 01:24:27;;;;;;;;;;;;;;;;;;4970612;28;20407;-60
2022/09/25 01:26:53;;;;;;;;;;;;;;;;;;4951668;28;19914;-59
2022/09/25 01:29:18;;;;;;;;;;;;;;;;;;4969577;28;19921;-60
2022/09/25 01:31:43;;;;;;;;;;;;;;;;;;4983737;28;19932;-60
2022/09/25 01:34:09;;;;;;;;;;;;;;;;;;4986790;28;19927;-60
2022/09/25 01:36:35;;;;;;;;;;;;;;;;;;4948087;28;20015;-59
2022/09/25 01:39:00;;;;;;;;;;;;;;;;;;4983299;28;20008;-59
2022/09/25 01:41:25;;;;;;;;;;;;;;;;;;4986590;28;20395;-59
2022/09/25 01:43:50;;;;;;;;;;;;;;;;;;4969554;28;19921;-60
2022/09/25 01:46:21;;;;;;;;;;;;;;;;;;4955863;28;19932;-59
2022/09/25 01:48:46;;;;;;;;;;;;;;;;;;4957463;28;19940;-59
2022/09/25 01:51:11;;;;;;;;;;;;;;;;;;4967548;28;20468;-60
2022/09/25 01:53:38;;;;;;;;;;;;;;;;;;4968596;28;19928;-59
2022/09/25 01:56:04;;;;;;;;;;;;;;;;;;4987491;28;20037;-59
2022/09/25 01:58:29;;;;;;;;;;;;;;;;;;4987356;28;19925;-60
2022/09/25 02:00:54;;;;;;;;;;;;;;;;;;4986759;28;19922;-58
2022/09/25 02:03:20;;;;;;;;;;;;;;;;;;4985272;28;19922;-59
2022/09/25 02:05:45;;;;;;;;;;;;;;;;;;4968546;28;19921;-60
2022/09/25 02:08:11;;;;;;;;;;;;;;;;;;4967025;28;20379;-59
2022/09/25 02:10:36;;;;;;;;;;;;;;;;;;4985489;28;20332;-60
2022/09/25 02:13:02;;;;;;;;;;;;;;;;;;4985063;28;19959;-60
2022/09/25 02:15:27;;;;;;;;;;;;;;;;;;4969902;28;20373;-59
2022/09/25 02:20:41;;;;;;;;;;;;;;;;;;4970546;28;20012;-61
2022/09/25 02:23:06;;;;;;;;;;;;;;;;;;4970592;28;19933;-61
2022/09/25 02:25:32;;;;;;;;;;;;;;;;;;4986743;28;19918;-57
2022/09/25 02:28:00;;;;;;;;;;;;;;;;;;4985338;28;19932;-60
2022/09/25 02:30:25;;;;;;;;;;;;;;;;;;4985447;28;19922;-60
2022/09/25 02:32:53;;;;;;;;;;;;;;;;;;4971891;28;20511;-59
2022/09/25 02:35:18;;;;;;;;;;;;;;;;;;4985710;28;19925;-60
2022/09/25 02:37:46;;;;;;;;;;;;;;;;;;4985663;28;21685;-59
2022/09/25 02:40:12;;;;;;;;;;;;;;;;;;4988046;28;19960;-60
2022/09/25 02:42:40;;;;;;;;;;;;;;;;;;4972745;28;20028;-59
2022/09/25 02:45:06;;;;;;;;;;;;;;;;;;4988065;28;20019;-60
2022/09/25 02:47:33;;;;;;;;;;;;;;;;;;4988381;28;20397;-60
2022/09/25 02:49:58;;;;;;;;;;;;;;;;;;4970872;28;19917;-60
2022/09/25 02:52:24;;;;;;;;;;;;;;;;;;4986670;28;20666;-60
2022/09/25 02:54:50;;;;;;;;;;;;;;;;;;4984755;28;19964;-60
2022/09/25 02:57:16;;;;;;;;;;;;;;;;;;4986174;28;20376;-59
2022/09/25 02:59:43;;;;;;;;;;;;;;;;;;4970534;28;19925;-59
2022/09/25 03:02:09;;;;;;;;;;;;;;;;;;4985342;28;19964;-59
2022/09/25 03:04:34;;;;;;;;;;;;;;;;;;4964115;28;20984;-60
2022/09/25 03:07:00;;;;;;;;;;;;;;;;;;4987068;28;19956;-61
2022/09/25 03:09:27;;;;;;;;;;;;;;;;;;4964642;28;20151;-59
2022/09/25 03:11:56;;;;;;;;;;;;;;;;;;4966831;28;19929;-60
2022/09/25 03:14:24;;;;;;;;;;;;;;;;;;4967395;28;19925;-59
2022/09/25 03:16:52;;;;;;;;;;;;;;;;;;4968981;28;20872;-59
2022/09/25 03:19:20;;;;;;;;;;;;;;;;;;4957100;28;20358;-59
2022/09/25 03:21:50;;;;;;;;;;;;;;;;;;4968803;28;19952;-59
2022/09/25 03:24:20;;;;;;;;;;;;;;;;;;4969996;28;20278;-59
2022/09/25 03:26:46;;;;;;;;;;;;;;;;;;4968129;28;19929;-60
2022/09/25 03:29:13;;;;;;;;;;;;;;;;;;4969853;28;19922;-59
2022/09/25 03:31:40;;;;;;;;;;;;;;;;;;4970666;28;19918;-59
2022/09/25 03:34:05;;;;;;;;;;;;;;;;;;4969180;28;19929;-59
2022/09/25 03:36:34;;;;;;;;;;;;;;;;;;4969390;28;19922;-58
2022/09/25 03:39:02;;;;;;;;;;;;;;;;;;4946868;28;19926;-59
2022/09/25 03:44:46;;;;;;;;;;;;;;;;;;4970621;28;19924;-60
2022/09/25 03:47:14;;;;;;;;;;;;;;;;;;4969492;28;19922;-59
2022/09/25 03:49:39;;;;;;;;;;;;;;;;;;4970152;28;19929;-59
2022/09/25 03:52:05;;;;;;;;;;;;;;;;;;4974462;28;20008;-59
2022/09/25 03:54:33;;;;;;;;;;;;;;;;;;4970139;28;19945;-60
2022/09/25 03:57:01;;;;;;;;;;;;;;;;;;4970072;28;19926;-59
2022/09/25 03:59:29;;;;;;;;;;;;;;;;;;4970859;28;19933;-59
2022/09/25 04:01:57;;;;;;;;;;;;;;;;;;4968179;28;20479;-59
2022/09/25 04:04:24;;;;;;;;;;;;;;;;;;4967744;28;19926;-60
2022/09/25 04:06:50;;;;;;;;;;;;;;;;;;4968543;28;19926;-60
2022/09/25 04:09:18;;;;;;;;;;;;;;;;;;4973202;28;19926;-61
2022/09/25 04:11:49;;;;;;;;;;;;;;;;;;4978623;28;19928;-60
2022/09/25 04:14:15;;;;;;;;;;;;;;;;;;4960134;28;19921;-61
2022/09/25 04:16:43;;;;;;;;;;;;;;;;;;4976553;28;19940;-60
2022/09/25 04:19:10;;;;;;;;;;;;;;;;;;4993673;28;20610;-61
2022/09/25 04:21:38;;;;;;;;;;;;;;;;;;4960971;28;19922;-60
2022/09/25 04:26:52;;;;;;;;;;;;;;;;;;4972526;28;20008;-60
2022/09/25 04:29:20;;;;;;;;;;;;;;;;;;4977548;28;20270;-60
2022/09/25 04:33:44;;;;;;;;;;;;;;;;;;4970608;28;19932;-60
2022/09/25 04:34:34;;;;;;;;;;;;;;;;;;4972803;28;19925;-60
2022/09/25 04:37:00;;;;;;;;;;;;;;;;;;4990093;28;19925;-60
2022/09/25 04:39:25;;;;;;;;;;;;;;;;;;4971469;28;19926;-60
2022/09/25 04:41:50;;;;;;;;;;;;;;;;;;4973686;28;19949;-60
2022/09/25 04:44:16;;;;;;;;;;;;;;;;;;4973102;28;20056;-59
2022/09/25 04:46:41;;;;;;;;;;;;;;;;;;4972716;28;19948;-60
2022/09/25 04:49:09;;;;;;;;;;;;;;;;;;4958393;28;19948;-59
2022/09/25 04:51:36;;;;;;;;;;;;;;;;;;4966275;28;19921;-61
2022/09/25 04:54:02;;;;;;;;;;;;;;;;;;4993039;28;20538;-59
2022/09/25 04:56:29;;;;;;;;;;;;;;;;;;4992092;28;20028;-61
2022/09/25 04:58:58;;;;;;;;;;;;;;;;;;4992853;28;19986;-58
2022/09/25 05:01:26;;;;;;;;;;;;;;;;;;4990402;28;20423;-60
2022/09/25 05:03:54;;;;;;;;;;;;;;;;;;4960758;28;19922;-60
2022/09/25 05:06:25;;;;;;;;;;;;;;;;;;4991555;28;19971;-59
2022/09/25 05:08:53;;;;;;;;;;;;;;;;;;4989888;28;19926;-59
2022/09/25 05:11:19;;;;;;;;;;;;;;;;;;4990108;28;19917;-60
2022/09/25 05:13:45;;;;;;;;;;;;;;;;;;4988994;28;19996;-59
2022/09/25 05:16:11;;;;;;;;;;;;;;;;;;4975340;28;19937;-60
2022/09/25 05:18:38;;;;;;;;;;;;;;;;;;4991234;28;19918;-60
2022/09/25 05:21:06;;;;;;;;;;;;;;;;;;4975050;28;20356;-60
2022/09/25 05:23:34;;;;;;;;;;;;;;;;;;4971424;28;19925;-60
2022/09/25 05:26:02;;;;;;;;;;;;;;;;;;4969593;28;20069;-59
2022/09/25 05:28:27;;;;;;;;;;;;;;;;;;4991151;28;19921;-60
2022/09/25 05:30:53;;;;;;;;;;;;;;;;;;4988030;28;19922;-60
2022/09/25 05:33:18;;;;;;;;;;;;;;;;;;4958382;28;19917;-59
2022/09/25 05:35:48;;;;;;;;;;;;;;;;;;4990583;28;20285;-59
2022/09/25 05:38:13;;;;;;;;;;;;;;;;;;4988092;28;19929;-60
2022/09/25 05:40:38;;;;;;;;;;;;;;;;;;4990672;28;19928;-59
2022/09/25 05:43:04;;;;;;;;;;;;;;;;;;4989728;28;19964;-59
2022/09/25 05:45:32;;;;;;;;;;;;;;;;;;4989220;28;20637;-59
2022/09/25 05:51:16;;;;;;;;;;;;;;;;;;4989325;28;19964;-59
2022/09/25 05:53:44;;;;;;;;;;;;;;;;;;4971786;28;19917;-58
2022/09/25 05:56:15;;;;;;;;;;;;;;;;;;4969542;28;19921;-59
2022/09/25 05:58:40;;;;;;;;;;;;;;;;;;4973591;28;20369;-59
2022/09/25 06:01:08;;;;;;;;;;;;;;;;;;4956445;28;19932;-59
2022/09/25 06:03:33;;;;;;;;;;;;;;;;;;4989788;28;21984;-60
2022/09/25 06:05:59;;;;;;;;;;;;;;;;;;4989196;28;19922;-60
2022/09/25 06:08:39;;;;;;;;;;;;;;;;;;4963427;28;20064;-58
2022/09/25 06:11:07;;;;;;;;;;;;;;;;;;4964691;28;19945;-58
2022/09/25 06:13:33;;;;;;;;;;;;;;;;;;4958000;28;20385;-60
2022/09/25 06:16:01;;;;;;;;;;;;;;;;;;4965832;28;20649;-60
2022/09/25 06:18:26;;;;;;;;;;;;;;;;;;4965547;28;19918;-59
2022/09/25 06:20:54;;;;;;;;;;;;;;;;;;4949467;28;21092;-59
2022/09/25 06:23:19;;;;;;;;;;;;;;;;;;4965900;28;20809;-59
2022/09/25 06:25:45;;;;;;;;;;;;;;;;;;4963913;28;19969;-60
2022/09/25 06:28:11;;;;;;;;;;;;;;;;;;4943952;28;19918;-59
2022/09/25 06:30:37;;;;;;;;;;;;;;;;;;4965536;28;20006;-59
2022/09/25 06:33:03;;;;;;;;;;;;;;;;;;4964285;28;19926;-59
2022/09/25 06:35:30;;;;;;;;;;;;;;;;;;4963820;28;19957;-58
2022/09/25 06:37:56;;;;;;;;;;;;;;;;;;4950024;28;19934;-59
2022/09/25 06:40:26;;;;;;;;;;;;;;;;;;4964395;28;19922;-60
2022/09/25 06:42:54;;;;;;;;;;;;;;;;;;4963103;28;20004;-60
2022/09/25 06:45:19;;;;;;;;;;;;;;;;;;4964355;28;20809;-59
2022/09/25 06:47:47;;;;;;;;;;;;;;;;;;4949433;28;19929;-59
2022/09/25 06:50:13;;;;;;;;;;;;;;;;;;4962913;28;19925;-59
2022/09/25 06:52:39;;;;;;;;;;;;;;;;;;4960203;28;19926;-60
2022/09/25 06:55:04;;;;;;;;;;;;;;;;;;4965788;28;19949;-60
2022/09/25 06:57:31;;;;;;;;;;;;;;;;;;4966602;28;19937;-60
2022/09/25 06:59:56;;;;;;;;;;;;;;;;;;4961796;28;19957;-60
2022/09/25 07:05:09;;;;;;;;;;;;;;;;;;4960896;28;19929;-59
2022/09/25 07:07:34;;;;;;;;;;;;;;;;;;4965135;28;19937;-60
2022/09/25 07:10:01;;;;;;;;;;;;;;;;;;4972993;28;19969;-60
2022/09/25 07:12:27;;;;;;;;;;;;;;;;;;4970579;28;20067;-60
2022/09/25 07:14:55;;;;;;;;;;;;;;;;;;4983631;28;20015;-59
2022/09/25 07:17:20;;;;;;;;;;;;;;;;;;4954576;28;20019;-60
2022/09/25 07:19:47;;;;;;;;;;;;;;;;;;4968701;28;19924;-60
2022/09/25 07:22:12;;;;;;;;;;;;;;;;;;4983189;28;20581;-60
2022/09/25 07:24:40;;;;;;;;;;;;;;;;;;4983851;28;19921;-60
2022/09/25 07:27:06;;;;;;;;;;;;;;;;;;4971167;28;19922;-60
2022/09/25 07:29:34;;;;;;;;;;;;;;;;;;4984172;28;19918;-59
2022/09/25 07:32:00;;;;;;;;;;;;;;;;;;4967780;28;19917;-59
2022/09/25 07:34:25;;;;;;;;;;;;;;;;;;4969994;28;19984;-59
2022/09/25 07:36:53;;;;;;;;;;;;;;;;;;4968576;28;20831;-60
2022/09/25 07:39:21;;;;;;;;;;;;;;;;;;4951773;28;19964;-60
2022/09/25 07:41:49;;;;;;;;;;;;;;;;;;4984031;28;19926;-60
2022/09/25 07:44:14;;;;;;;;;;;;;;;;;;4957462;28;19995;-58
2022/09/25 07:46:42;;;;;;;;;;;;;;;;;;4968030;28;19972;-60
2022/09/25 07:49:07;;;;;;;;;;;;;;;;;;4955752;28;20056;-59
2022/09/25 07:51:33;;;;;;;;;;;;;;;;;;4971957;28;20969;-59
2022/09/25 07:54:02;;;;;;;;;;;;;;;;;;4970405;28;20409;-60
2022/09/25 07:56:30;;;;;;;;;;;;;;;;;;4967235;28;19936;-60
2022/09/25 07:58:55;;;;;;;;;;;;;;;;;;4984918;28;19926;-59
2022/09/25 08:01:21;;;;;;;;;;;;;;;;;;4971785;28;19913;-59
2022/09/25 08:03:48;;;;;;;;;;;;;;;;;;4960140;28;19922;-59
2022/09/25 08:06:13;;;;;;;;;;;;;;;;;;4989593;28;19952;-60
2022/09/25 08:08:39;;;;;;;;;;;;;;;;;;4983377;28;20040;-61
2022/09/25 08:11:06;;;;;;;;;;;;;;;;;;4976776;28;20934;-60
2022/09/25 08:13:32;;;;;;;;;;;;;;;;;;4954156;28;19926;-60
2022/09/25 08:15:57;;;;;;;;;;;;;;;;;;4988084;28;19925;-60
2022/09/25 08:18:25;;;;;;;;;;;;;;;;;;4959811;28;20894;-60
2022/09/25 08:20:51;;;;;;;;;;;;;;;;;;4954014;28;19980;-63
2022/09/25 08:23:16;;;;;;;;;;;;;;;;;;4986366;28;20002;-61
2022/09/25 08:25:42;;;;;;;;;;;;;;;;;;4970518;28;20552;-60
2022/09/25 08:28:07;;;;;;;;;;;;;;;;;;4986354;28;20293;-61
2022/09/25 08:30:36;;;;;;;;;;;;;;;;;;4971632;28;19929;-59
2022/09/25 08:33:03;;;;;;;;;;;;;;;;;;4956363;28;19918;-60
2022/09/25 08:35:29;;;;;;;;;;;;;;;;;;4988021;28;19928;-60
2022/09/25 08:37:54;;;;;;;;;;;;;;;;;;4957442;28;19926;-61
2022/09/25 08:40:22;;;;;;;;;;;;;;;;;;4986948;28;20388;-59
2022/09/25 08:42:48;;;;;;;;;;;;;;;;;;4972870;28;19921;-59
2022/09/25 08:50:44;;;;;;;;;;;;;;;;;;4985965;28;19948;-59
2022/09/25 08:53:16;;;;;;;;;;;;;;;;;;4986450;28;19918;-59
2022/09/25 08:58:28;;;;;;;;;;;;;;;;;;4971984;28;19918;-58
2022/09/25 09:00:53;;;;;;;;;;;;;;;;;;4971031;28;19931;-61
2022/09/25 09:03:23;;;;;;;;;;;;;;;;;;4988159;28;19921;-58
2022/09/25 09:05:50;;;;;;;;;;;;;;;;;;4985992;28;19932;-60
2022/09/25 09:08:16;;;;;;;;;;;;;;;;;;4988897;28;20028;-58
2022/09/25 09:10:41;;;;;;;;;;;;;;;;;;4969121;28;20402;-61
2022/09/25 09:16:00;;;;;;;;;;;;;;;;;;4990387;28;19936;-60
2022/09/25 09:18:28;;;;;;;;;;;;;;;;;;4990382;28;19925;-60
2022/09/25 09:20:56;;;;;;;;;;;;;;;;;;4972272;28;19928;-60
2022/09/25 09:23:21;;;;;;;;;;;;;;;;;;4991134;28;19922;-58
2022/09/25 09:25:49;;;;;;;;;;;;;;;;;;4989026;28;19921;-61
2022/09/25 09:28:14;;;;;;;;;;;;;;;;;;4957969;28;19921;-60
2022/09/25 09:30:39;;;;;;;;;;;;;;;;;;4980584;28;19941;-60
2022/09/25 09:33:05;;;;;;;;;;;;;;;;;;4957424;28;20004;-60
2022/09/25 09:35:33;;;;;;;;;;;;;;;;;;4957659;28;19976;-59
2022/09/25 09:37:58;;;;;;;;;;;;;;;;;;4962953;28;21991;-60
2022/09/25 09:40:26;;;;;;;;;;;;;;;;;;4990222;28;19921;-60
2022/09/25 09:42:52;;;;;;;;;;;;;;;;;;4990242;28;20809;-60
2022/09/25 09:45:18;;;;;;;;;;;;;;;;;;4974177;28;19948;-60
2022/09/25 09:47:45;;;;;;;;;;;;;;;;;;4988074;28;19922;-60
2022/09/25 09:50:13;;;;;;;;;;;;;;;;;;4989442;28;20545;-60
2022/09/25 09:52:38;;;;;;;;;;;;;;;;;;4989925;28;19976;-60
2022/09/25 09:55:06;;;;;;;;;;;;;;;;;;4990177;28;21896;-61
2022/09/25 09:57:32;;;;;;;;;;;;;;;;;;4970136;28;21731;-60
2022/09/25 09:59:57;;;;;;;;;;;;;;;;;;4990998;28;19921;-60
2022/09/25 10:02:27;;;;;;;;;;;;;;;;;;4972913;28;19917;-60
2022/09/25 10:04:52;;;;;;;;;;;;;;;;;;4974126;28;19984;-60
2022/09/25 10:07:18;;;;;;;;;;;;;;;;;;4973316;28;20324;-60
2022/09/25 10:09:46;;;;;;;;;;;;;;;;;;4987538;28;20013;-60
2022/09/25 10:12:11;;;;;;;;;;;;;;;;;;4988760;28;20794;-60
2022/09/25 10:14:37;;;;;;;;;;;;;;;;;;4969998;28;20012;-61
2022/09/25 10:17:03;;;;;;;;;;;;;;;;;;4990551;28;20876;-61
2022/09/25 10:19:30;;;;;;;;;;;;;;;;;;4966934;28;19944;-60
2022/09/25 10:21:56;;;;;;;;;;;;;;;;;;4988536;28;21792;-60
2022/09/25 10:24:21;;;;;;;;;;;;;;;;;;4988519;28;20024;-61
2022/09/25 10:26:47;;;;;;;;;;;;;;;;;;4971855;28;19922;-61
2022/09/25 10:29:15;;;;;;;;;;;;;;;;;;4989467;28;19921;-61
2022/09/25 10:31:40;;;;;;;;;;;;;;;;;;4973392;28;19921;-61
2022/09/25 10:34:06;;;;;;;;;;;;;;;;;;4989234;28;19965;-60
2022/09/25 10:36:31;;;;;;;;;;;;;;;;;;4989226;28;19921;-60
2022/09/25 10:38:57;;;;;;;;;;;;;;;;;;4967214;28;20657;-61
2022/09/25 10:41:23;;;;;;;;;;;;;;;;;;4970341;28;19953;-64
2022/09/25 10:43:49;;;;;;;;;;;;;;;;;;4972375;28;20012;-61
2022/09/25 10:46:14;;;;;;;;;;;;;;;;;;4967475;28;19917;-61
2022/09/25 10:51:24;;;;;;;;;;;;;;;;;;4968295;28;19917;-63
2022/09/25 10:53:49;;;;;;;;;;;;;;;;;;4971445;28;19989;-62
2022/09/25 10:56:14;;;;;;;;;;;;;;;;;;4988679;28;19961;-63
2022/09/25 10:58:40;;;;;;;;;;;;;;;;;;4967052;28;19922;-61
2022/09/25 11:01:05;;;;;;;;;;;;;;;;;;4969922;28;20373;-63
2022/09/25 11:03:31;;;;;;;;;;;;;;;;;;4988437;28;19921;-63
2022/09/25 11:05:56;;;;;;;;;;;;;;;;;;4986446;28;19921;-63
2022/09/25 11:08:22;;;;;;;;;;;;;;;;;;4963516;28;20348;-63
2022/09/25 11:10:48;;;;;;;;;;;;;;;;;;4963939;28;19929;-61
2022/09/25 11:13:14;;;;;;;;;;;;;;;;;;4952153;28;19926;-63
2022/09/25 11:15:41;;;;;;;;;;;;;;;;;;4947223;28;20408;-62
2022/09/25 11:18:07;;;;;;;;;;;;;;;;;;4963055;28;20055;-62
2022/09/25 11:20:33;;;;;;;;;;;;;;;;;;4962718;28;19928;-62
2022/09/25 11:22:59;;;;;;;;;;;;;;;;;;4963587;28;20645;-63
2022/09/25 11:25:24;;;;;;;;;;;;;;;;;;4965211;28;19925;-62
2022/09/25 11:27:51;;;;;;;;;;;;;;;;;;4976125;28;19965;-65
2022/09/25 11:30:16;;;;;;;;;;;;;;;;;;4964583;28;20013;-67
2022/09/25 11:32:42;;;;;;;;;;;;;;;;;;4958232;28;19952;-66
2022/09/25 11:35:07;;;;;;;;;;;;;;;;;;4951483;28;20662;-66
2022/09/25 11:37:33;;;;;;;;;;;;;;;;;;4966454;28;19926;-69
2022/09/25 11:42:42;;;;;;;;;;;;;;;;;;4967530;28;20235;-61
2022/09/25 11:45:08;;;;;;;;;;;;;;;;;;4968359;28;19926;-63
2022/09/25 11:47:35;;;;;;;;;;;;;;;;;;4968291;28;20016;-65
2022/09/25 11:50:00;;;;;;;;;;;;;;;;;;4966317;28;19922;-61
2022/09/25 11:52:26;;;;;;;;;;;;;;;;;;4968261;28;19922;-63
2022/09/25 11:54:54;;;;;;;;;;;;;;;;;;4967602;28;19932;-65
2022/09/25 11:57:20;;;;;;;;;;;;;;;;;;4967378;28;19977;-65
2022/09/25 11:59:45;;;;;;;;;;;;;;;;;;4966609;28;19925;-67
2022/09/25 12:02:11;;;;;;;;;;;;;;;;;;4969272;28;19917;-65
2022/09/25 12:04:39;;;;;;;;;;;;;;;;;;4954040;28;19922;-64
2022/09/25 12:07:05;;;;;;;;;;;;;;;;;;4950124;28;20004;-64
2022/09/25 12:09:30;;;;;;;;;;;;;;;;;;4958096;28;20419;-65
2022/09/25 12:12:00;;;;;;;;;;;;;;;;;;4991768;28;20523;-65
2022/09/25 12:14:28;;;;;;;;;;;;;;;;;;4965988;28;19927;-66
2022/09/25 12:16:53;;;;;;;;;;;;;;;;;;4960870;28;19924;-67
2022/09/25 12:19:23;;;;;;;;;;;;;;;;;;4989366;28;20333;-64
2022/09/25 12:21:48;;;;;;;;;;;;;;;;;;4990882;28;19929;-64
2022/09/25 12:24:14;;;;;;;;;;;;;;;;;;4992267;28;19957;-68
2022/09/25 12:26:39;;;;;;;;;;;;;;;;;;4973878;28;19968;-67
2022/09/25 12:29:05;;;;;;;;;;;;;;;;;;4961113;28;19960;-66
2022/09/25 12:31:35;;;;;;;;;;;;;;;;;;4974873;28;19925;-66
2022/09/25 12:34:00;;;;;;;;;;;;;;;;;;4972525;28;19977;-66
2022/09/25 12:36:27;;;;;;;;;;;;;;;;;;4960233;28;20009;-63
2022/09/25 12:38:55;;;;;;;;;;;;;;;;;;4972008;28;19980;-66
2022/09/25 12:41:23;;;;;;;;;;;;;;;;;;4971377;28;19921;-65
2022/09/25 12:43:51;;;;;;;;;;;;;;;;;;4974736;28;19917;-66
2022/09/25 12:46:17;;;;;;;;;;;;;;;;;;4957511;28;20020;-66
2022/09/25 12:48:44;;;;;;;;;;;;;;;;;;4991076;28;20115;-67
2022/09/25 12:51:12;;;;;;;;;;;;;;;;;;4969507;28;19924;-65
2022/09/25 12:53:37;;;;;;;;;;;;;;;;;;4972081;28;19928;-66
2022/09/25 12:56:03;;;;;;;;;;;;;;;;;;4990739;28;19922;-68
2022/09/25 12:58:28;;;;;;;;;;;;;;;;;;4974919;28;19933;-67
2022/09/25 13:00:54;;;;;;;;;;;;;;;;;;4989941;28;19917;-66
2022/09/25 13:03:21;;;;;;;;;;;;;;;;;;4973834;28;19965;-64
2022/09/25 13:05:47;;;;;;;;;;;;;;;;;;4973409;28;20101;-66
2022/09/25 13:08:15;;;;;;;;;;;;;;;;;;4987532;28;20004;-67
2022/09/25 13:10:40;;;;;;;;;;;;;;;;;;4987063;28;19972;-64
2022/09/25 13:13:06;;;;;;;;;;;;;;;;;;4959005;28;20475;-66
2022/09/25 13:15:31;;;;;;;;;;;;;;;;;;4970424;28;20040;-66
2022/09/25 13:17:59;;;;;;;;;;;;;;;;;;4973336;28;20178;-64
2022/09/25 13:20:25;;;;;;;;;;;;;;;;;;4985190;28;19925;-65
2022/09/25 13:22:50;;;;;;;;;;;;;;;;;;4972726;28;19921;-65
2022/09/25 13:25:19;;;;;;;;;;;;;;;;;;4986880;28;19928;-65
2022/09/25 13:27:44;;;;;;;;;;;;;;;;;;4984422;28;19925;-66
2022/09/25 13:30:10;;;;;;;;;;;;;;;;;;4984900;28;19918;-65
2022/09/25 13:32:38;;;;;;;;;;;;;;;;;;4984139;28;19922;-66
2022/09/25 13:35:04;;;;;;;;;;;;;;;;;;4987330;28;19924;-68
2022/09/25 13:37:31;;;;;;;;;;;;;;;;;;4984881;28;20744;-65
2022/09/25 13:42:42;;;;;;;;;;;;;;;;;;4970230;28;19918;-65
2022/09/25 13:45:08;;;;;;;;;;;;;;;;;;4957713;28;19945;-66
2022/09/25 13:47:33;;;;;;;;;;;;;;;;;;4958296;28;20024;-65
2022/09/25 13:50:01;;;;;;;;;;;;;;;;;;4969538;28;19948;-66
2022/09/25 13:52:26;;;;;;;;;;;;;;;;;;4984666;28;19929;-66
2022/09/25 13:54:51;;;;;;;;;;;;;;;;;;4957136;28;19932;-67
2022/09/25 13:57:17;;;;;;;;;;;;;;;;;;4970638;28;19917;-66
2022/09/25 13:59:45;;;;;;;;;;;;;;;;;;4985298;28;19922;-66
2022/09/25 14:02:10;;;;;;;;;;;;;;;;;;4970267;28;19927;-67
2022/09/25 14:04:36;;;;;;;;;;;;;;;;;;4986214;28;19929;-68
2022/09/25 14:07:02;;;;;;;;;;;;;;;;;;4953673;28;20533;-68
2022/09/25 14:09:27;;;;;;;;;;;;;;;;;;4972181;28;19979;-68
2022/09/25 14:11:55;;;;;;;;;;;;;;;;;;4969402;28;19917;-68
2022/09/25 14:14:24;;;;;;;;;;;;;;;;;;4967633;28;20031;-66
2022/09/25 14:16:49;;;;;;;;;;;;;;;;;;4970065;28;19921;-66
2022/09/25 14:19:15;;;;;;;;;;;;;;;;;;4969923;28;19918;-67
2022/09/25 14:21:41;;;;;;;;;;;;;;;;;;4983280;28;20013;-66
2022/09/25 14:24:06;;;;;;;;;;;;;;;;;;4969816;28;19933;-66
2022/09/25 14:26:31;;;;;;;;;;;;;;;;;;4968305;28;19952;-66
2022/09/25 14:28:57;;;;;;;;;;;;;;;;;;4969179;28;19918;-66
2022/09/25 14:31:23;;;;;;;;;;;;;;;;;;4973049;28;20637;-67
2022/09/25 14:33:49;;;;;;;;;;;;;;;;;;4969261;28;20012;-68
2022/09/25 14:36:14;;;;;;;;;;;;;;;;;;4984373;28;19972;-67
2022/09/25 14:38:43;;;;;;;;;;;;;;;;;;4981951;28;21734;-67
2022/09/25 14:41:08;;;;;;;;;;;;;;;;;;4968856;28;21863;-67
2022/09/25 14:43:33;;;;;;;;;;;;;;;;;;4969854;28;19917;-66
2022/09/25 14:46:01;;;;;;;;;;;;;;;;;;4968120;28;19921;-66
2022/09/25 14:48:27;;;;;;;;;;;;;;;;;;4972836;28;20919;-69
2022/09/25 14:50:52;;;;;;;;;;;;;;;;;;4967704;28;19948;-66
2022/09/25 14:53:19;;;;;;;;;;;;;;;;;;4972215;28;19932;-67
2022/09/25 14:55:45;;;;;;;;;;;;;;;;;;4985499;28;19967;-67
2022/09/25 14:58:11;;;;;;;;;;;;;;;;;;4972238;28;20016;-67
2022/09/25 15:00:36;;;;;;;;;;;;;;;;;;4968766;28;19937;-67
2022/09/25 15:03:02;;;;;;;;;;;;;;;;;;4968195;28;20545;-70
2022/09/25 15:05:27;;;;;;;;;;;;;;;;;;4955140;28;19929;-67
2022/09/25 15:07:52;;;;;;;;;;;;;;;;;;4967615;28;19976;-67
2022/09/25 15:10:18;;;;;;;;;;;;;;;;;;4983816;28;19932;-67
2022/09/25 15:12:44;;;;;;;;;;;;;;;;;;4984451;28;19934;-67
2022/09/25 15:15:09;;;;;;;;;;;;;;;;;;4970045;28;19955;-68
2022/09/25 15:17:36;;;;;;;;;;;;;;;;;;4983972;28;19928;-68
2022/09/25 15:20:01;;;;;;;;;;;;;;;;;;4984892;28;20358;-67
2022/09/25 15:22:29;;;;;;;;;;;;;;;;;;4984706;28;19921;-66
2022/09/25 15:24:54;;;;;;;;;;;;;;;;;;4968328;28;19922;-67
2022/09/25 15:27:20;;;;;;;;;;;;;;;;;;4984502;28;20456;-66
2022/09/25 15:33:05;;;;;;;;;;;;;;;;;;4982540;28;20588;-67
2022/09/25 15:35:31;;;;;;;;;;;;;;;;;;4985471;28;19937;-66
2022/09/25 15:37:56;;;;;;;;;;;;;;;;;;4984347;28;19929;-66
2022/09/25 15:40:26;;;;;;;;;;;;;;;;;;4984299;28;19961;-66
2022/09/25 15:42:51;;;;;;;;;;;;;;;;;;4985474;28;20043;-66
2022/09/25 15:45:17;;;;;;;;;;;;;;;;;;4965948;28;20472;-67
2022/09/25 15:47:42;;;;;;;;;;;;;;;;;;4983328;28;19926;-67
2022/09/25 15:50:07;;;;;;;;;;;;;;;;;;4984842;28;19964;-67
2022/09/25 15:52:37;;;;;;;;;;;;;;;;;;4982935;28;19922;-67
2022/09/25 15:55:02;;;;;;;;;;;;;;;;;;4952452;28;19926;-67
2022/09/25 15:57:28;;;;;;;;;;;;;;;;;;4968574;28;20656;-67
2022/09/25 16:05:22;;;;;;;;;;;;;;;;;;4984406;28;19925;-67
2022/09/25 16:07:48;;;;;;;;;;;;;;;;;;4956786;28;19964;-67
2022/09/25 16:10:13;;;;;;;;;;;;;;;;;;4966474;28;19921;-67
2022/09/25 16:12:39;;;;;;;;;;;;;;;;;;4956458;28;19921;-66
2022/09/25 16:15:04;;;;;;;;;;;;;;;;;;4967974;28;19917;-67
2022/09/25 16:17:30;;;;;;;;;;;;;;;;;;4961615;28;19967;-67
2022/09/25 16:19:56;;;;;;;;;;;;;;;;;;4986112;28;20596;-66
2022/09/25 16:22:22;;;;;;;;;;;;;;;;;;4967800;28;19929;-65
2022/09/25 16:24:47;;;;;;;;;;;;;;;;;;4958963;28;19922;-66
2022/09/25 16:27:15;;;;;;;;;;;;;;;;;;4968346;28;20716;-66
2022/09/25 16:29:40;;;;;;;;;;;;;;;;;;4985723;28;20007;-67
2022/09/25 16:32:06;;;;;;;;;;;;;;;;;;4986868;28;19932;-66
2022/09/25 16:34:31;;;;;;;;;;;;;;;;;;4958991;28;20048;-65
2022/09/25 16:36:57;;;;;;;;;;;;;;;;;;4976820;28;19921;-67
2022/09/25 16:39:22;;;;;;;;;;;;;;;;;;4987148;28;20369;-66
2022/09/25 16:41:48;;;;;;;;;;;;;;;;;;4964869;28;19933;-66
2022/09/25 16:44:13;;;;;;;;;;;;;;;;;;4973895;28;19918;-66
2022/09/25 16:46:39;;;;;;;;;;;;;;;;;;4974438;28;19925;-65
2022/09/25 16:49:04;;;;;;;;;;;;;;;;;;4989064;28;20274;-65
2022/09/25 16:51:30;;;;;;;;;;;;;;;;;;4971933;28;19922;-66
2022/09/25 16:53:58;;;;;;;;;;;;;;;;;;4972967;28;20385;-65
2022/09/25 16:56:24;;;;;;;;;;;;;;;;;;4959605;28;19917;-66
2022/09/25 16:58:50;;;;;;;;;;;;;;;;;;4986772;28;19918;-67
2022/09/25 17:01:15;;;;;;;;;;;;;;;;;;4987775;28;19928;-66
2022/09/25 17:03:51;;;;;;;;;;;;;;;;;;4986242;28;20007;-67
2022/09/25 17:06:16;;;;;;;;;;;;;;;;;;4965294;28;19932;-67
2022/09/25 17:08:41;;;;;;;;;;;;;;;;;;4985301;28;19929;-65
2022/09/25 17:11:07;;;;;;;;;;;;;;;;;;4970811;28;19972;-65
2022/09/25 17:13:33;;;;;;;;;;;;;;;;;;4972403;28;19918;-65
2022/09/25 17:16:01;;;;;;;;;;;;;;;;;;4970183;28;19928;-66
2022/09/25 17:18:29;;;;;;;;;;;;;;;;;;4965335;28;20396;-66
2022/09/25 17:20:54;;;;;;;;;;;;;;;;;;4956499;28;19921;-65
2022/09/25 17:23:19;;;;;;;;;;;;;;;;;;4955656;28;19971;-65
2022/09/25 17:25:47;;;;;;;;;;;;;;;;;;4971227;28;19918;-66